sensor_id;sensor_type;location;lat;lon;timestamp;P1;durP1;ratioP1;P2;durP2;ratioP2
51475;SDS011;37554;50.362;7.568;2023-07-29T00:00:21;3.08;;;0.35;;
51475;SDS011;37554;50.362;7.568;2023-07-29T00:02:46;2.53;;;0.40;;
51475;SDS011;37554;50.362;7.568;2023-07-29T00:05:12;0.85;;;0.30;;
51475;SDS011;37554;50.362;7.568;2023-07-29T00:07:37;1.35;;;0.20;;
51475;SDS011;37554;50.362;7.568;2023-07-29T00:10:03;0.30;;;0.20;;
51475;SDS011;37554;50.362;7.568;2023-07-29T00:12:29;0.43;;;0.25;;
51475;SDS011;37554;50.362;7.568;2023-07-29T00:14:55;0.85;;;0.40;;
51475;SDS011;37554;50.362;7.568;2023-07-29T00:17:20;0.40;;;0.30;;
51475;SDS011;37554;50.362;7.568;2023-07-29T00:19:46;0.73;;;0.25;;
51475;SDS011;37554;50.362;7.568;2023-07-29T00:22:12;0.40;;;0.30;;
51475;SDS011;37554;50.362;7.568;2023-07-29T00:24:39;0.80;;;0.30;;
51475;SDS011;37554;50.362;7.568;2023-07-29T00:27:05;0.60;;;0.30;;
51475;SDS011;37554;50.362;7.568;2023-07-29T00:29:30;0.45;;;0.40;;
51475;SDS011;37554;50.362;7.568;2023-07-29T00:31:56;1.52;;;0.20;;
51475;SDS011;37554;50.362;7.568;2023-07-29T00:34:22;0.73;;;0.30;;
51475;SDS011;37554;50.362;7.568;2023-07-29T00:36:47;0.75;;;0.35;;
51475;SDS011;37554;50.362;7.568;2023-07-29T00:39:13;1.25;;;0.32;;
51475;SDS011;37554;50.362;7.568;2023-07-29T00:41:39;1.67;;;0.30;;
51475;SDS011;37554;50.362;7.568;2023-07-29T00:44:05;0.40;;;0.20;;
51475;SDS011;37554;50.362;7.568;2023-07-29T00:46:30;0.73;;;0.22;;
51475;SDS011;37554;50.362;7.568;2023-07-29T00:48:58;0.88;;;0.50;;
51475;SDS011;37554;50.362;7.568;2023-07-29T00:51:24;0.60;;;0.20;;
51475;SDS011;37554;50.362;7.568;2023-07-29T00:53:49;1.70;;;0.40;;
51475;SDS011;37554;50.362;7.568;2023-07-29T00:56:15;0.52;;;0.30;;
51475;SDS011;37554;50.362;7.568;2023-07-29T00:58:41;2.65;;;0.30;;
51475;SDS011;37554;50.362;7.568;2023-07-29T01:01:07;0.35;;;0.30;;
51475;SDS011;37554;50.362;7.568;2023-07-29T01:03:33;1.60;;;0.30;;
51475;SDS011;37554;50.362;7.568;2023-07-29T01:06:12;1.10;;;0.25;;
51475;SDS011;37554;50.362;7.568;2023-07-29T01:08:46;0.40;;;0.30;;
51475;SDS011;37554;50.362;7.568;2023-07-29T01:11:38;0.30;;;0.22;;
51475;SDS011;37554;50.362;7.568;2023-07-29T01:16:47;1.50;;;0.30;;
51475;SDS011;37554;50.362;7.568;2023-07-29T01:22:14;2.20;;;0.50;;
51475;SDS011;37554;50.362;7.568;2023-07-29T01:24:41;0.38;;;0.22;;
51475;SDS011;37554;50.362;7.568;2023-07-29T01:27:07;1.67;;;0.30;;
51475;SDS011;37554;50.362;7.568;2023-07-29T01:29:33;1.15;;;0.40;;
51475;SDS011;37554;50.362;7.568;2023-07-29T01:32:00;1.00;;;0.40;;
51475;SDS011;37554;50.362;7.568;2023-07-29T01:34:52;2.10;;;0.50;;
51475;SDS011;37554;50.362;7.568;2023-07-29T01:39:52;0.77;;;0.30;;
51475;SDS011;37554;50.362;7.568;2023-07-29T01:42:21;0.85;;;0.40;;
51475;SDS011;37554;50.362;7.568;2023-07-29T01:44:48;1.20;;;0.40;;
51475;SDS011;37554;50.362;7.568;2023-07-29T01:47:14;0.80;;;0.30;;
51475;SDS011;37554;50.362;7.568;2023-07-29T01:49:39;4.13;;;0.50;;
51475;SDS011;37554;50.362;7.568;2023-07-29T01:52:05;2.42;;;0.40;;
51475;SDS011;37554;50.362;7.568;2023-07-29T01:54:30;0.70;;;0.30;;
51475;SDS011;37554;50.362;7.568;2023-07-29T01:56:56;1.58;;;0.40;;
51475;SDS011;37554;50.362;7.568;2023-07-29T01:59:22;0.65;;;0.40;;
51475;SDS011;37554;50.362;7.568;2023-07-29T02:01:47;4.68;;;0.43;;
51475;SDS011;37554;50.362;7.568;2023-07-29T02:04:13;3.80;;;0.50;;
51475;SDS011;37554;50.362;7.568;2023-07-29T02:06:39;2.10;;;0.40;;
51475;SDS011;37554;50.362;7.568;2023-07-29T02:09:05;3.38;;;0.70;;
51475;SDS011;37554;50.362;7.568;2023-07-29T02:11:30;2.67;;;0.30;;
51475;SDS011;37554;50.362;7.568;2023-07-29T02:13:56;4.68;;;0.60;;
51475;SDS011;37554;50.362;7.568;2023-07-29T02:16:22;0.90;;;0.50;;
51475;SDS011;37554;50.362;7.568;2023-07-29T02:18:48;1.25;;;0.40;;
51475;SDS011;37554;50.362;7.568;2023-07-29T02:21:15;0.68;;;0.60;;
51475;SDS011;37554;50.362;7.568;2023-07-29T02:23:41;0.63;;;0.45;;
51475;SDS011;37554;50.362;7.568;2023-07-29T02:26:06;1.20;;;0.40;;
51475;SDS011;37554;50.362;7.568;2023-07-29T02:28:32;3.22;;;0.50;;
51475;SDS011;37554;50.362;7.568;2023-07-29T02:33:43;3.05;;;0.60;;
51475;SDS011;37554;50.362;7.568;2023-07-29T02:36:08;1.17;;;0.60;;
51475;SDS011;37554;50.362;7.568;2023-07-29T02:38:34;1.25;;;0.43;;
51475;SDS011;37554;50.362;7.568;2023-07-29T02:41:00;2.20;;;0.60;;
51475;SDS011;37554;50.362;7.568;2023-07-29T02:43:26;1.95;;;0.50;;
51475;SDS011;37554;50.362;7.568;2023-07-29T02:45:51;0.60;;;0.40;;
51475;SDS011;37554;50.362;7.568;2023-07-29T02:48:17;0.60;;;0.50;;
51475;SDS011;37554;50.362;7.568;2023-07-29T02:50:42;1.15;;;0.60;;
51475;SDS011;37554;50.362;7.568;2023-07-29T02:53:08;2.60;;;0.68;;
51475;SDS011;37554;50.362;7.568;2023-07-29T02:55:34;2.38;;;0.43;;
51475;SDS011;37554;50.362;7.568;2023-07-29T02:57:59;1.20;;;0.43;;
51475;SDS011;37554;50.362;7.568;2023-07-29T03:00:25;3.17;;;0.43;;
51475;SDS011;37554;50.362;7.568;2023-07-29T03:02:50;2.45;;;0.63;;
51475;SDS011;37554;50.362;7.568;2023-07-29T03:05:16;1.30;;;0.50;;
51475;SDS011;37554;50.362;7.568;2023-07-29T03:07:42;0.85;;;0.47;;
51475;SDS011;37554;50.362;7.568;2023-07-29T03:10:07;0.80;;;0.50;;
51475;SDS011;37554;50.362;7.568;2023-07-29T03:12:33;2.17;;;0.52;;
51475;SDS011;37554;50.362;7.568;2023-07-29T03:14:59;1.23;;;0.50;;
51475;SDS011;37554;50.362;7.568;2023-07-29T03:17:25;1.30;;;0.60;;
51475;SDS011;37554;50.362;7.568;2023-07-29T03:19:51;0.30;;;0.30;;
51475;SDS011;37554;50.362;7.568;2023-07-29T03:22:17;1.20;;;0.40;;
51475;SDS011;37554;50.362;7.568;2023-07-29T03:24:42;0.50;;;0.50;;
51475;SDS011;37554;50.362;7.568;2023-07-29T03:27:08;5.72;;;0.70;;
51475;SDS011;37554;50.362;7.568;2023-07-29T03:29:35;1.85;;;0.55;;
51475;SDS011;37554;50.362;7.568;2023-07-29T03:32:00;3.08;;;0.52;;
51475;SDS011;37554;50.362;7.568;2023-07-29T03:34:26;1.00;;;0.55;;
51475;SDS011;37554;50.362;7.568;2023-07-29T03:36:52;2.78;;;0.70;;
51475;SDS011;37554;50.362;7.568;2023-07-29T03:39:17;3.05;;;0.70;;
51475;SDS011;37554;50.362;7.568;2023-07-29T03:41:43;1.48;;;0.65;;
51475;SDS011;37554;50.362;7.568;2023-07-29T03:44:09;3.13;;;0.70;;
51475;SDS011;37554;50.362;7.568;2023-07-29T03:46:34;0.87;;;0.60;;
51475;SDS011;37554;50.362;7.568;2023-07-29T03:49:00;0.75;;;0.68;;
51475;SDS011;37554;50.362;7.568;2023-07-29T03:51:25;1.25;;;0.50;;
51475;SDS011;37554;50.362;7.568;2023-07-29T03:53:51;2.00;;;0.60;;
51475;SDS011;37554;50.362;7.568;2023-07-29T03:56:17;0.95;;;0.70;;
51475;SDS011;37554;50.362;7.568;2023-07-29T03:58:42;1.48;;;0.50;;
51475;SDS011;37554;50.362;7.568;2023-07-29T04:01:09;1.92;;;0.50;;
51475;SDS011;37554;50.362;7.568;2023-07-29T04:03:34;0.60;;;0.60;;
51475;SDS011;37554;50.362;7.568;2023-07-29T04:06:00;3.28;;;0.60;;
51475;SDS011;37554;50.362;7.568;2023-07-29T04:08:26;1.13;;;0.70;;
51475;SDS011;37554;50.362;7.568;2023-07-29T04:10:51;1.27;;;0.70;;
51475;SDS011;37554;50.362;7.568;2023-07-29T04:13:17;0.70;;;0.70;;
51475;SDS011;37554;50.362;7.568;2023-07-29T04:15:43;1.75;;;0.60;;
51475;SDS011;37554;50.362;7.568;2023-07-29T04:18:09;4.45;;;0.50;;
51475;SDS011;37554;50.362;7.568;2023-07-29T04:20:35;1.33;;;0.70;;
51475;SDS011;37554;50.362;7.568;2023-07-29T04:23:01;0.52;;;0.52;;
51475;SDS011;37554;50.362;7.568;2023-07-29T04:25:27;2.20;;;0.50;;
51475;SDS011;37554;50.362;7.568;2023-07-29T04:27:53;0.95;;;0.50;;
51475;SDS011;37554;50.362;7.568;2023-07-29T04:30:19;1.00;;;0.70;;
51475;SDS011;37554;50.362;7.568;2023-07-29T04:32:44;3.70;;;0.70;;
51475;SDS011;37554;50.362;7.568;2023-07-29T04:35:13;1.42;;;0.70;;
51475;SDS011;37554;50.362;7.568;2023-07-29T04:37:39;1.90;;;0.68;;
51475;SDS011;37554;50.362;7.568;2023-07-29T04:40:05;1.33;;;0.65;;
51475;SDS011;37554;50.362;7.568;2023-07-29T04:42:32;1.98;;;0.70;;
51475;SDS011;37554;50.362;7.568;2023-07-29T04:44:57;1.50;;;0.68;;
51475;SDS011;37554;50.362;7.568;2023-07-29T04:47:23;3.70;;;0.60;;
51475;SDS011;37554;50.362;7.568;2023-07-29T04:49:49;1.60;;;0.50;;
51475;SDS011;37554;50.362;7.568;2023-07-29T04:52:14;2.47;;;0.60;;
51475;SDS011;37554;50.362;7.568;2023-07-29T04:54:40;0.63;;;0.60;;
51475;SDS011;37554;50.362;7.568;2023-07-29T04:57:06;2.70;;;0.52;;
51475;SDS011;37554;50.362;7.568;2023-07-29T04:59:31;0.88;;;0.60;;
51475;SDS011;37554;50.362;7.568;2023-07-29T05:01:57;1.30;;;0.70;;
51475;SDS011;37554;50.362;7.568;2023-07-29T05:04:23;2.38;;;0.60;;
51475;SDS011;37554;50.362;7.568;2023-07-29T05:06:48;0.95;;;0.60;;
51475;SDS011;37554;50.362;7.568;2023-07-29T05:09:16;1.38;;;0.60;;
51475;SDS011;37554;50.362;7.568;2023-07-29T05:11:43;0.63;;;0.38;;
51475;SDS011;37554;50.362;7.568;2023-07-29T05:14:10;3.20;;;0.50;;
51475;SDS011;37554;50.362;7.568;2023-07-29T05:16:37;1.05;;;0.60;;
51475;SDS011;37554;50.362;7.568;2023-07-29T05:19:03;1.75;;;0.70;;
51475;SDS011;37554;50.362;7.568;2023-07-29T05:21:29;1.20;;;0.63;;
51475;SDS011;37554;50.362;7.568;2023-07-29T05:23:55;0.55;;;0.55;;
51475;SDS011;37554;50.362;7.568;2023-07-29T05:26:20;4.15;;;0.63;;
51475;SDS011;37554;50.362;7.568;2023-07-29T05:28:46;0.98;;;0.55;;
51475;SDS011;37554;50.362;7.568;2023-07-29T05:31:12;2.92;;;0.70;;
51475;SDS011;37554;50.362;7.568;2023-07-29T05:33:38;1.35;;;0.60;;
51475;SDS011;37554;50.362;7.568;2023-07-29T05:36:03;2.42;;;0.80;;
51475;SDS011;37554;50.362;7.568;2023-07-29T05:38:30;0.55;;;0.50;;
51475;SDS011;37554;50.362;7.568;2023-07-29T05:40:55;0.50;;;0.50;;
51475;SDS011;37554;50.362;7.568;2023-07-29T05:43:21;0.98;;;0.50;;
51475;SDS011;37554;50.362;7.568;2023-07-29T05:45:49;1.75;;;0.55;;
51475;SDS011;37554;50.362;7.568;2023-07-29T05:48:16;1.65;;;0.73;;
51475;SDS011;37554;50.362;7.568;2023-07-29T05:50:41;1.27;;;0.70;;
51475;SDS011;37554;50.362;7.568;2023-07-29T05:53:07;0.95;;;0.50;;
51475;SDS011;37554;50.362;7.568;2023-07-29T05:55:33;1.85;;;0.80;;
51475;SDS011;37554;50.362;7.568;2023-07-29T05:57:58;0.88;;;0.50;;
51475;SDS011;37554;50.362;7.568;2023-07-29T06:00:24;2.28;;;0.65;;
51475;SDS011;37554;50.362;7.568;2023-07-29T06:02:50;0.60;;;0.60;;
51475;SDS011;37554;50.362;7.568;2023-07-29T06:05:15;0.98;;;0.73;;
51475;SDS011;37554;50.362;7.568;2023-07-29T06:07:41;3.50;;;0.80;;
51475;SDS011;37554;50.362;7.568;2023-07-29T06:10:12;1.63;;;0.70;;
51475;SDS011;37554;50.362;7.568;2023-07-29T06:12:39;2.20;;;0.73;;
51475;SDS011;37554;50.362;7.568;2023-07-29T06:15:04;2.22;;;0.60;;
51475;SDS011;37554;50.362;7.568;2023-07-29T06:17:30;2.35;;;0.70;;
51475;SDS011;37554;50.362;7.568;2023-07-29T06:19:56;3.00;;;0.60;;
51475;SDS011;37554;50.362;7.568;2023-07-29T06:22:21;0.88;;;0.60;;
51475;SDS011;37554;50.362;7.568;2023-07-29T06:24:47;0.80;;;0.60;;
51475;SDS011;37554;50.362;7.568;2023-07-29T06:27:13;2.45;;;0.75;;
51475;SDS011;37554;50.362;7.568;2023-07-29T06:29:38;1.00;;;0.60;;
51475;SDS011;37554;50.362;7.568;2023-07-29T06:32:04;1.77;;;0.60;;
51475;SDS011;37554;50.362;7.568;2023-07-29T06:34:30;1.02;;;0.60;;
51475;SDS011;37554;50.362;7.568;2023-07-29T06:36:56;0.80;;;0.55;;
51475;SDS011;37554;50.362;7.568;2023-07-29T06:39:21;3.88;;;0.77;;
51475;SDS011;37554;50.362;7.568;2023-07-29T06:41:47;1.38;;;0.65;;
51475;SDS011;37554;50.362;7.568;2023-07-29T06:44:12;0.90;;;0.60;;
51475;SDS011;37554;50.362;7.568;2023-07-29T06:46:38;2.33;;;0.63;;
51475;SDS011;37554;50.362;7.568;2023-07-29T06:49:05;0.93;;;0.60;;
51475;SDS011;37554;50.362;7.568;2023-07-29T06:51:30;0.70;;;0.50;;
51475;SDS011;37554;50.362;7.568;2023-07-29T06:53:59;0.60;;;0.45;;
51475;SDS011;37554;50.362;7.568;2023-07-29T06:56:25;1.90;;;0.57;;
51475;SDS011;37554;50.362;7.568;2023-07-29T06:58:50;2.35;;;0.75;;
51475;SDS011;37554;50.362;7.568;2023-07-29T07:01:19;1.15;;;0.50;;
51475;SDS011;37554;50.362;7.568;2023-07-29T07:03:48;1.23;;;0.55;;
51475;SDS011;37554;50.362;7.568;2023-07-29T07:06:14;1.40;;;0.52;;
51475;SDS011;37554;50.362;7.568;2023-07-29T07:08:39;1.45;;;0.57;;
51475;SDS011;37554;50.362;7.568;2023-07-29T07:11:06;3.00;;;0.70;;
51475;SDS011;37554;50.362;7.568;2023-07-29T07:13:31;1.02;;;0.70;;
51475;SDS011;37554;50.362;7.568;2023-07-29T07:15:57;0.60;;;0.50;;
51475;SDS011;37554;50.362;7.568;2023-07-29T07:18:22;0.95;;;0.50;;
51475;SDS011;37554;50.362;7.568;2023-07-29T07:20:48;1.20;;;0.55;;
51475;SDS011;37554;50.362;7.568;2023-07-29T07:23:15;0.63;;;0.50;;
51475;SDS011;37554;50.362;7.568;2023-07-29T07:25:41;0.95;;;0.50;;
51475;SDS011;37554;50.362;7.568;2023-07-29T07:28:10;2.80;;;0.55;;
51475;SDS011;37554;50.362;7.568;2023-07-29T07:30:39;0.73;;;0.40;;
51475;SDS011;37554;50.362;7.568;2023-07-29T07:33:09;2.28;;;0.50;;
51475;SDS011;37554;50.362;7.568;2023-07-29T07:35:35;0.47;;;0.45;;
51475;SDS011;37554;50.362;7.568;2023-07-29T07:38:01;2.67;;;0.40;;
51475;SDS011;37554;50.362;7.568;2023-07-29T07:40:29;1.17;;;0.50;;
51475;SDS011;37554;50.362;7.568;2023-07-29T07:45:27;2.28;;;0.40;;
51475;SDS011;37554;50.362;7.568;2023-07-29T07:47:53;1.15;;;0.60;;
51475;SDS011;37554;50.362;7.568;2023-07-29T07:50:18;2.58;;;0.40;;
51475;SDS011;37554;50.362;7.568;2023-07-29T07:52:45;0.77;;;0.45;;
51475;SDS011;37554;50.362;7.568;2023-07-29T07:55:10;0.95;;;0.40;;
51475;SDS011;37554;50.362;7.568;2023-07-29T07:57:36;1.05;;;0.50;;
51475;SDS011;37554;50.362;7.568;2023-07-29T08:00:01;0.65;;;0.40;;
51475;SDS011;37554;50.362;7.568;2023-07-29T08:02:29;0.90;;;0.47;;
51475;SDS011;37554;50.362;7.568;2023-07-29T08:04:55;0.65;;;0.40;;
51475;SDS011;37554;50.362;7.568;2023-07-29T08:07:20;0.73;;;0.38;;
51475;SDS011;37554;50.362;7.568;2023-07-29T08:09:46;1.38;;;0.40;;
51475;SDS011;37554;50.362;7.568;2023-07-29T08:12:12;2.33;;;0.50;;
51475;SDS011;37554;50.362;7.568;2023-07-29T08:14:37;0.80;;;0.60;;
51475;SDS011;37554;50.362;7.568;2023-07-29T08:17:03;1.08;;;0.60;;
51475;SDS011;37554;50.362;7.568;2023-07-29T08:19:29;0.52;;;0.45;;
51475;SDS011;37554;50.362;7.568;2023-07-29T08:21:54;1.02;;;0.60;;
51475;SDS011;37554;50.362;7.568;2023-07-29T08:24:20;0.98;;;0.60;;
51475;SDS011;37554;50.362;7.568;2023-07-29T08:26:46;0.98;;;0.60;;
51475;SDS011;37554;50.362;7.568;2023-07-29T08:29:11;0.43;;;0.40;;
51475;SDS011;37554;50.362;7.568;2023-07-29T08:31:37;1.10;;;0.50;;
51475;SDS011;37554;50.362;7.568;2023-07-29T08:34:05;0.93;;;0.45;;
51475;SDS011;37554;50.362;7.568;2023-07-29T08:36:32;1.45;;;0.52;;
51475;SDS011;37554;50.362;7.568;2023-07-29T08:38:57;2.05;;;0.60;;
51475;SDS011;37554;50.362;7.568;2023-07-29T08:41:29;1.00;;;0.70;;
51475;SDS011;37554;50.362;7.568;2023-07-29T08:44:15;0.35;;;0.35;;
51475;SDS011;37554;50.362;7.568;2023-07-29T08:46:56;0.60;;;0.60;;
51475;SDS011;37554;50.362;7.568;2023-07-29T08:49:22;2.47;;;0.70;;
51475;SDS011;37554;50.362;7.568;2023-07-29T08:51:49;1.80;;;0.60;;
51475;SDS011;37554;50.362;7.568;2023-07-29T08:54:16;1.95;;;0.73;;
51475;SDS011;37554;50.362;7.568;2023-07-29T08:56:42;0.95;;;0.57;;
51475;SDS011;37554;50.362;7.568;2023-07-29T08:59:10;1.77;;;0.65;;
51475;SDS011;37554;50.362;7.568;2023-07-29T09:01:37;1.25;;;0.70;;
51475;SDS011;37554;50.362;7.568;2023-07-29T09:04:03;1.17;;;0.52;;
51475;SDS011;37554;50.362;7.568;2023-07-29T09:06:30;0.40;;;0.40;;
51475;SDS011;37554;50.362;7.568;2023-07-29T09:08:56;1.90;;;0.50;;
51475;SDS011;37554;50.362;7.568;2023-07-29T09:11:23;0.57;;;0.55;;
51475;SDS011;37554;50.362;7.568;2023-07-29T09:13:49;1.00;;;0.80;;
51475;SDS011;37554;50.362;7.568;2023-07-29T09:16:14;2.38;;;0.80;;
51475;SDS011;37554;50.362;7.568;2023-07-29T09:18:40;3.03;;;0.80;;
51475;SDS011;37554;50.362;7.568;2023-07-29T09:21:09;3.28;;;0.77;;
51475;SDS011;37554;50.362;7.568;2023-07-29T09:23:38;4.43;;;0.75;;
51475;SDS011;37554;50.362;7.568;2023-07-29T09:26:08;2.85;;;0.75;;
51475;SDS011;37554;50.362;7.568;2023-07-29T09:28:35;1.00;;;0.70;;
51475;SDS011;37554;50.362;7.568;2023-07-29T09:31:02;1.13;;;0.73;;
51475;SDS011;37554;50.362;7.568;2023-07-29T09:33:29;1.17;;;0.68;;
51475;SDS011;37554;50.362;7.568;2023-07-29T09:35:56;1.50;;;0.93;;
51475;SDS011;37554;50.362;7.568;2023-07-29T09:38:26;1.88;;;0.90;;
51475;SDS011;37554;50.362;7.568;2023-07-29T09:40:54;0.70;;;0.60;;
51475;SDS011;37554;50.362;7.568;2023-07-29T09:43:25;1.30;;;0.77;;
51475;SDS011;37554;50.362;7.568;2023-07-29T09:45:54;1.35;;;0.80;;
51475;SDS011;37554;50.362;7.568;2023-07-29T09:48:22;2.17;;;0.88;;
51475;SDS011;37554;50.362;7.568;2023-07-29T09:50:48;1.75;;;0.65;;
51475;SDS011;37554;50.362;7.568;2023-07-29T09:53:14;2.88;;;0.80;;
51475;SDS011;37554;50.362;7.568;2023-07-29T09:55:40;3.17;;;0.70;;
51475;SDS011;37554;50.362;7.568;2023-07-29T09:58:12;1.77;;;0.90;;
51475;SDS011;37554;50.362;7.568;2023-07-29T10:00:37;2.50;;;1.13;;
51475;SDS011;37554;50.362;7.568;2023-07-29T10:03:05;2.53;;;1.05;;
51475;SDS011;37554;50.362;7.568;2023-07-29T10:05:31;1.98;;;1.20;;
51475;SDS011;37554;50.362;7.568;2023-07-29T10:07:59;1.52;;;0.85;;
51475;SDS011;37554;50.362;7.568;2023-07-29T10:10:27;4.57;;;1.95;;
51475;SDS011;37554;50.362;7.568;2023-07-29T10:12:54;2.28;;;2.05;;
51475;SDS011;37554;50.362;7.568;2023-07-29T10:15:21;2.35;;;1.42;;
51475;SDS011;37554;50.362;7.568;2023-07-29T10:17:47;2.22;;;1.67;;
51475;SDS011;37554;50.362;7.568;2023-07-29T10:20:13;2.97;;;1.80;;
51475;SDS011;37554;50.362;7.568;2023-07-29T10:22:42;1.65;;;1.30;;
51475;SDS011;37554;50.362;7.568;2023-07-29T10:25:17;1.70;;;1.23;;
51475;SDS011;37554;50.362;7.568;2023-07-29T10:27:52;2.38;;;1.00;;
51475;SDS011;37554;50.362;7.568;2023-07-29T10:30:22;1.77;;;1.40;;
51475;SDS011;37554;50.362;7.568;2023-07-29T10:32:49;1.13;;;1.05;;
51475;SDS011;37554;50.362;7.568;2023-07-29T10:35:16;3.03;;;1.00;;
51475;SDS011;37554;50.362;7.568;2023-07-29T10:37:42;1.40;;;1.00;;
51475;SDS011;37554;50.362;7.568;2023-07-29T10:40:10;1.10;;;0.82;;
51475;SDS011;37554;50.362;7.568;2023-07-29T10:42:37;1.48;;;0.80;;
51475;SDS011;37554;50.362;7.568;2023-07-29T10:45:19;1.73;;;0.63;;
51475;SDS011;37554;50.362;7.568;2023-07-29T10:47:45;0.90;;;0.80;;
51475;SDS011;37554;50.362;7.568;2023-07-29T10:50:19;1.17;;;0.80;;
51475;SDS011;37554;50.362;7.568;2023-07-29T10:52:50;0.50;;;0.50;;
51475;SDS011;37554;50.362;7.568;2023-07-29T10:55:50;1.75;;;0.70;;
51475;SDS011;37554;50.362;7.568;2023-07-29T10:58:12;1.08;;;0.85;;
51475;SDS011;37554;50.362;7.568;2023-07-29T11:00:44;1.25;;;0.85;;
51475;SDS011;37554;50.362;7.568;2023-07-29T11:03:11;1.10;;;1.00;;
51475;SDS011;37554;50.362;7.568;2023-07-29T11:08:22;2.83;;;1.10;;
51475;SDS011;37554;50.362;7.568;2023-07-29T11:13:32;0.80;;;0.80;;
51475;SDS011;37554;50.362;7.568;2023-07-29T11:16:00;1.20;;;1.00;;
51475;SDS011;37554;50.362;7.568;2023-07-29T11:18:30;1.25;;;0.95;;
51475;SDS011;37554;50.362;7.568;2023-07-29T11:21:00;3.10;;;1.00;;
51475;SDS011;37554;50.362;7.568;2023-07-29T11:23:34;1.45;;;0.80;;
51475;SDS011;37554;50.362;7.568;2023-07-29T11:26:01;1.42;;;0.90;;
51475;SDS011;37554;50.362;7.568;2023-07-29T11:28:28;3.22;;;0.90;;
51475;SDS011;37554;50.362;7.568;2023-07-29T11:30:55;1.75;;;0.95;;
51475;SDS011;37554;50.362;7.568;2023-07-29T11:33:21;1.30;;;0.68;;
51475;SDS011;37554;50.362;7.568;2023-07-29T11:35:49;1.83;;;0.90;;
51475;SDS011;37554;50.362;7.568;2023-07-29T11:38:16;1.83;;;0.77;;
51475;SDS011;37554;50.362;7.568;2023-07-29T11:40:42;1.00;;;0.80;;
51475;SDS011;37554;50.362;7.568;2023-07-29T11:43:08;1.38;;;0.77;;
51475;SDS011;37554;50.362;7.568;2023-07-29T11:45:34;2.85;;;0.68;;
51475;SDS011;37554;50.362;7.568;2023-07-29T11:48:03;1.55;;;0.82;;
51475;SDS011;37554;50.362;7.568;2023-07-29T11:50:28;2.38;;;0.80;;
51475;SDS011;37554;50.362;7.568;2023-07-29T11:52:54;1.13;;;0.70;;
51475;SDS011;37554;50.362;7.568;2023-07-29T11:55:20;2.22;;;0.90;;
51475;SDS011;37554;50.362;7.568;2023-07-29T11:57:46;1.13;;;0.90;;
51475;SDS011;37554;50.362;7.568;2023-07-29T12:00:16;4.10;;;1.00;;
51475;SDS011;37554;50.362;7.568;2023-07-29T12:02:43;2.60;;;1.20;;
51475;SDS011;37554;50.362;7.568;2023-07-29T12:05:11;1.42;;;0.82;;
51475;SDS011;37554;50.362;7.568;2023-07-29T12:07:39;3.38;;;0.98;;
51475;SDS011;37554;50.362;7.568;2023-07-29T12:10:06;1.20;;;1.00;;
51475;SDS011;37554;50.362;7.568;2023-07-29T12:12:32;2.60;;;1.15;;
51475;SDS011;37554;50.362;7.568;2023-07-29T12:14:58;1.05;;;0.98;;
51475;SDS011;37554;50.362;7.568;2023-07-29T12:17:23;1.80;;;0.85;;
51475;SDS011;37554;50.362;7.568;2023-07-29T12:19:49;1.67;;;0.85;;
51475;SDS011;37554;50.362;7.568;2023-07-29T12:22:19;1.10;;;0.93;;
51475;SDS011;37554;50.362;7.568;2023-07-29T12:24:45;1.30;;;0.88;;
51475;SDS011;37554;50.362;7.568;2023-07-29T12:27:11;0.73;;;0.70;;
51475;SDS011;37554;50.362;7.568;2023-07-29T12:29:41;1.15;;;0.77;;
51475;SDS011;37554;50.362;7.568;2023-07-29T12:32:08;1.02;;;0.77;;
51475;SDS011;37554;50.362;7.568;2023-07-29T12:34:34;0.70;;;0.70;;
51475;SDS011;37554;50.362;7.568;2023-07-29T12:37:02;1.00;;;0.75;;
51475;SDS011;37554;50.362;7.568;2023-07-29T12:39:29;0.70;;;0.70;;
51475;SDS011;37554;50.362;7.568;2023-07-29T12:41:58;1.20;;;0.73;;
51475;SDS011;37554;50.362;7.568;2023-07-29T12:44:34;1.13;;;0.90;;
51475;SDS011;37554;50.362;7.568;2023-07-29T12:47:01;0.90;;;0.63;;
51475;SDS011;37554;50.362;7.568;2023-07-29T12:49:28;0.90;;;0.80;;
51475;SDS011;37554;50.362;7.568;2023-07-29T12:51:55;0.93;;;0.70;;
51475;SDS011;37554;50.362;7.568;2023-07-29T12:54:24;1.60;;;0.90;;
51475;SDS011;37554;50.362;7.568;2023-07-29T12:56:50;2.00;;;0.70;;
51475;SDS011;37554;50.362;7.568;2023-07-29T12:59:16;1.20;;;0.90;;
51475;SDS011;37554;50.362;7.568;2023-07-29T13:01:42;1.85;;;0.70;;
51475;SDS011;37554;50.362;7.568;2023-07-29T13:04:09;0.80;;;0.80;;
51475;SDS011;37554;50.362;7.568;2023-07-29T13:06:35;1.02;;;0.75;;
51475;SDS011;37554;50.362;7.568;2023-07-29T13:09:01;0.93;;;0.70;;
51475;SDS011;37554;50.362;7.568;2023-07-29T13:11:26;0.77;;;0.70;;
51475;SDS011;37554;50.362;7.568;2023-07-29T13:13:52;1.10;;;0.60;;
51475;SDS011;37554;50.362;7.568;2023-07-29T13:16:17;0.75;;;0.63;;
51475;SDS011;37554;50.362;7.568;2023-07-29T13:18:43;0.80;;;0.80;;
51475;SDS011;37554;50.362;7.568;2023-07-29T13:21:18;0.70;;;0.70;;
51475;SDS011;37554;50.362;7.568;2023-07-29T13:23:44;0.68;;;0.68;;
51475;SDS011;37554;50.362;7.568;2023-07-29T13:26:09;0.95;;;0.95;;
51475;SDS011;37554;50.362;7.568;2023-07-29T13:28:36;1.20;;;1.10;;
51475;SDS011;37554;50.362;7.568;2023-07-29T13:31:01;1.10;;;0.98;;
51475;SDS011;37554;50.362;7.568;2023-07-29T13:33:28;2.72;;;0.90;;
51475;SDS011;37554;50.362;7.568;2023-07-29T13:35:53;1.45;;;0.85;;
51475;SDS011;37554;50.362;7.568;2023-07-29T13:38:19;2.65;;;1.10;;
51475;SDS011;37554;50.362;7.568;2023-07-29T13:40:45;1.73;;;0.88;;
51475;SDS011;37554;50.362;7.568;2023-07-29T13:43:10;1.10;;;1.00;;
51475;SDS011;37554;50.362;7.568;2023-07-29T13:45:36;0.65;;;0.65;;
51475;SDS011;37554;50.362;7.568;2023-07-29T13:48:02;0.80;;;0.80;;
51475;SDS011;37554;50.362;7.568;2023-07-29T13:50:28;0.90;;;0.90;;
51475;SDS011;37554;50.362;7.568;2023-07-29T13:52:53;0.93;;;0.80;;
51475;SDS011;37554;50.362;7.568;2023-07-29T13:55:19;0.85;;;0.80;;
51475;SDS011;37554;50.362;7.568;2023-07-29T13:57:45;1.92;;;0.90;;
51475;SDS011;37554;50.362;7.568;2023-07-29T14:00:10;1.00;;;0.88;;
51475;SDS011;37554;50.362;7.568;2023-07-29T14:02:36;1.23;;;1.00;;
51475;SDS011;37554;50.362;7.568;2023-07-29T14:05:02;0.93;;;0.93;;
51475;SDS011;37554;50.362;7.568;2023-07-29T14:07:28;0.93;;;0.77;;
51475;SDS011;37554;50.362;7.568;2023-07-29T14:09:54;1.48;;;1.08;;
51475;SDS011;37554;50.362;7.568;2023-07-29T14:12:19;0.95;;;0.95;;
51475;SDS011;37554;50.362;7.568;2023-07-29T14:14:45;1.45;;;1.10;;
51475;SDS011;37554;50.362;7.568;2023-07-29T14:17:10;0.95;;;0.80;;
51475;SDS011;37554;50.362;7.568;2023-07-29T14:19:36;2.20;;;0.80;;
51475;SDS011;37554;50.362;7.568;2023-07-29T14:22:02;2.33;;;0.80;;
51475;SDS011;37554;50.362;7.568;2023-07-29T14:24:28;1.00;;;0.90;;
51475;SDS011;37554;50.362;7.568;2023-07-29T14:26:53;2.10;;;0.90;;
51475;SDS011;37554;50.362;7.568;2023-07-29T14:29:19;1.25;;;1.10;;
51475;SDS011;37554;50.362;7.568;2023-07-29T14:31:45;2.22;;;0.90;;
51475;SDS011;37554;50.362;7.568;2023-07-29T14:34:10;1.67;;;1.00;;
51475;SDS011;37554;50.362;7.568;2023-07-29T14:36:36;0.90;;;0.90;;
51475;SDS011;37554;50.362;7.568;2023-07-29T14:39:02;1.35;;;0.80;;
51475;SDS011;37554;50.362;7.568;2023-07-29T14:41:28;1.30;;;1.20;;
51475;SDS011;37554;50.362;7.568;2023-07-29T14:43:54;1.17;;;0.93;;
51475;SDS011;37554;50.362;7.568;2023-07-29T14:46:19;1.13;;;1.00;;
51475;SDS011;37554;50.362;7.568;2023-07-29T14:48:45;1.00;;;0.77;;
51475;SDS011;37554;50.362;7.568;2023-07-29T14:51:12;1.77;;;1.00;;
51475;SDS011;37554;50.362;7.568;2023-07-29T14:53:37;2.22;;;1.13;;
51475;SDS011;37554;50.362;7.568;2023-07-29T14:56:03;1.20;;;0.80;;
51475;SDS011;37554;50.362;7.568;2023-07-29T14:58:29;1.02;;;0.80;;
51475;SDS011;37554;50.362;7.568;2023-07-29T15:00:55;2.10;;;1.10;;
51475;SDS011;37554;50.362;7.568;2023-07-29T15:03:21;1.60;;;0.90;;